Rina Amoretti — IBRR — position and weather

sailwx.info

Track history (hours):
 
Tides and Currents Weather Stations Pressure Air Temp Water Temp Dewpoint Dewpoint Depression Visibility Wind Speed Wind Dir Waves Ship Positions

Rina Amoretti

Last reported at 2015-Aug-01 07:33 UTC. Time now 2015-Aug-01 07:48 UTC.
Position N 38°13' E 015°36'.

Length 120 m; draft 6.9 m.

Type: Ship (hazmat cat A). MMSI: 247197000.

Date/timePositionNaut miles runAvg speedWind from/ knotsBaromVisibWave heightAir tempDewpointWater temp
2015-Aug-01 07:33N 38°13' E 015°36'7 7.4
2015-Aug-01 06:33N 38°20' E 015°32'1413.6
2015-Aug-01 05:33N 38°18' E 015°15'1313.3
2015-Aug-01 04:33N 38°17' E 014°58'1313.1
2015-Aug-01 03:33N 38°15' E 014°41'5212.7
2015-Jul-31 23:28N 38°10' E 013°36'8 9.0
2015-Jul-31 22:33N 38°06' E 013°26'0 0.1
2015-Jul-31 21:32N 38°06' E 013°26'0 0.0
2015-Jul-31 20:29N 38°06' E 013°26'0 0.0
2015-Jul-31 19:32N 38°06' E 013°26'0 0.0
2015-Jul-31 18:32N 38°06' E 013°26'0 0.0
2015-Jul-31 17:32N 38°06' E 013°26'0 0.0
2015-Jul-31 16:32N 38°06' E 013°26'0 0.0
2015-Jul-31 15:29N 38°06' E 013°26'0 0.0
2015-Jul-31 14:29N 38°06' E 013°26'0 0.0
2015-Jul-31 13:32N 38°06' E 013°26'0 0.0
2015-Jul-31 12:32N 38°06' E 013°26'0 0.0
2015-Jul-31 11:32N 38°06' E 013°26'0 0.0
2015-Jul-31 10:32N 38°06' E 013°26'0 0.0
2015-Jul-31 09:20N 38°06' E 013°26'0 0.0
2015-Jul-31 08:32N 38°06' E 013°26'0 0.0
2015-Jul-31 07:23N 38°06' E 013°26'0 0.0
2015-Jul-31 06:33N 38°06' E 013°26'1 1.3
2015-Jul-31 05:33N 38°07' E 013°28'1 1.1
2015-Jul-31 04:33N 38°07' E 013°29'8 7.4
2015-Jul-31 03:25N 38°10' E 013°39'53 9.0
2015-Jul-30 21:33N 38°16' E 014°45'1210.9
2015-Jul-30 20:28N 38°17' E 015°00'1010.9
2015-Jul-30 19:32N 38°18' E 015°13'1010.5
2015-Jul-30 18:34N 38°19' E 015°26'10 9.6
2015-Jul-30 17:33N 38°19' E 015°39'9 8.6
2015-Jul-30 16:34N 38°10' E 015°37'1211.5
2015-Jul-30 15:33N 37°59' E 015°33'1312.3
2015-Jul-30 14:31N 37°47' E 015°29'2412.3
2015-Jul-30 12:33N 37°24' E 015°22'5 0.1
2015-Jul-29 00:28N 37°19' E 015°20'1414.2
2015-Jul-28 23:30N 37°32' E 015°23'1414.4
2015-Jul-28 22:33N 37°45' E 015°28'1514.8
2015-Jul-28 21:34N 37°60' E 015°32'1514.5
2015-Jul-28 20:33N 38°14' E 015°36'1312.8
2015-Jul-28 19:33N 38°27' E 015°36'1514.7
2015-Jul-28 18:33N 38°40' E 015°29'1614.7
2015-Jul-28 17:29N 38°55' E 015°20'1314.5
2015-Jul-28 16:34N 39°06' E 015°12'8814.6
2015-Jul-28 10:33N 40°22' E 014°15'1414.2
2015-Jul-28 09:33N 40°36' E 014°10'1414.2
2015-Jul-28 08:34N 40°49' E 014°18'2 1.6
2015-Jul-28 07:29N 40°50' E 014°18'0 0.0
2015-Jul-28 06:32N 40°50' E 014°18'0 0.0
2015-Jul-28 05:26N 40°50' E 014°18'0 0.0
2015-Jul-28 04:29N 40°50' E 014°18'0 0.0
2015-Jul-28 03:32N 40°50' E 014°18'0 0.0
2015-Jul-28 02:32N 40°50' E 014°18'0 0.0
2015-Jul-28 01:17N 40°50' E 014°18'0 0.0
2015-Jul-28 00:20N 40°50' E 014°18'0 0.0
2015-Jul-27 23:32N 40°50' E 014°18'0 0.0
2015-Jul-27 22:32N 40°50' E 014°18'0 0.0
2015-Jul-27 21:32N 40°50' E 014°18'0 0.0
2015-Jul-27 20:17N 40°50' E 014°18'0 0.0
2015-Jul-27 17:16N 40°50' E 014°18'0 0.0
2015-Jul-27 16:13N 40°50' E 014°18'0 0.0
2015-Jul-27 15:31N 40°50' E 014°18'0 0.0
2015-Jul-27 14:25N 40°50' E 014°18'0 0.1
2015-Jul-27 12:28N 40°50' E 014°17'3 3.7
2015-Jul-27 11:33N 40°47' E 014°17'1413.8
2015-Jul-27 10:33N 40°34' E 014°09'11614.0
2015-Jul-27 02:17N 38°53' E 015°21'1014.0
2015-Jul-27 01:33N 38°44' E 015°27'1414.3
2015-Jul-27 00:33N 38°31' E 015°35'1414.5
2015-Jul-26 23:33N 38°18' E 015°43'1313.5
2015-Jul-26 22:33N 38°06' E 015°35'1414.3
2015-Jul-26 21:33N 37°52' E 015°31'  
2015-Jul-24 08:31N 37°39' E 015°26'1414.5
2015-Jul-24 07:33N 37°53' E 015°30'1514.6
2015-Jul-24 06:33N 38°07' E 015°34'1212.0
2015-Jul-24 05:33N 38°19' E 015°38'1413.7
2015-Jul-24 04:33N 38°19' E 015°21'1313.0
2015-Jul-24 03:32N 38°17' E 015°04'1312.8
2015-Jul-24 02:33N 38°16' E 014°48'5513.1
2015-Jul-23 22:23N 38°10' E 013°39'1012.6
2015-Jul-23 21:33N 38°07' E 013°27'1 0.9
2015-Jul-23 20:28N 38°06' E 013°26'0 0.0
2015-Jul-23 19:28N 38°06' E 013°26'0 0.0
2015-Jul-23 18:28N 38°06' E 013°26'0 0.0
2015-Jul-23 17:31N 38°06' E 013°26'0 0.0
2015-Jul-23 16:28N 38°06' E 013°26'0 0.0
2015-Jul-23 15:28N 38°06' E 013°26'0 0.0
2015-Jul-23 14:31N 38°06' E 013°26'0 0.0
2015-Jul-23 13:34N 38°06' E 013°26'0 0.0
2015-Jul-23 12:18N 38°06' E 013°26'0 0.0
2015-Jul-23 11:33N 38°06' E 013°26'0 0.0
2015-Jul-23 10:33N 38°06' E 013°26'0 0.0
2015-Jul-23 09:33N 38°06' E 013°26'0 0.0
2015-Jul-23 08:33N 38°06' E 013°26'0 0.0
2015-Jul-23 07:32N 38°06' E 013°26'1 0.8
2015-Jul-23 06:33N 38°06' E 013°27'1 1.3
2015-Jul-23 05:32N 38°07' E 013°29'0 0.0
2015-Jul-23 04:29N 38°07' E 013°29'0 0.0
2015-Jul-23 03:32N 38°07' E 013°29'0 0.0
2015-Jul-23 02:32N 38°07' E 013°29'0 0.0
2015-Jul-23 01:32N 38°07' E 013°29'0 0.0
2015-Jul-23 00:32N 38°07' E 013°29'0 0.0
2015-Jul-22 23:28N 38°07' E 013°29'5212.6
2015-Jul-22 19:17N 38°15' E 014°35'1114.5
2015-Jul-22 18:32N 38°16' E 014°48'1515.3
2015-Jul-22 17:33N 38°18' E 015°07'1514.8
2015-Jul-22 16:33N 38°19' E 015°26'1212.5
2015-Jul-22 15:34N 38°17' E 015°42'1313.1
2015-Jul-22 14:33N 38°05' E 015°35'1413.6
2015-Jul-22 13:33N 37°51' E 015°31'1413.6
2015-Jul-22 12:31N 37°38' E 015°26'  
Track history (hours):
 
Tides and Currents Weather Stations Pressure Air Temp Water Temp Dewpoint Dewpoint Depression Visibility Wind Speed Wind Dir Waves Ship Positions

Rina Amoretti

Last reported at 2015-Aug-01 07:33 UTC. Time now 2015-Aug-01 07:48 UTC.
Position N 38°13' E 015°36'.

Length 120 m; draft 6.9 m.

Type: Ship (hazmat cat A). MMSI: 247197000.

Date/timePositionNaut miles runAvg speedWind from/ knotsBaromVisibWave heightAir tempDewpointWater temp
2015-Aug-01 07:33N 38°13' E 015°36'7 7.4
2015-Aug-01 06:33N 38°20' E 015°32'1413.6
2015-Aug-01 05:33N 38°18' E 015°15'1313.3
2015-Aug-01 04:33N 38°17' E 014°58'1313.1
2015-Aug-01 03:33N 38°15' E 014°41'5212.7
2015-Jul-31 23:28N 38°10' E 013°36'8 9.0
2015-Jul-31 22:33N 38°06' E 013°26'0 0.1
2015-Jul-31 21:32N 38°06' E 013°26'0 0.0
2015-Jul-31 20:29N 38°06' E 013°26'0 0.0
2015-Jul-31 19:32N 38°06' E 013°26'0 0.0
2015-Jul-31 18:32N 38°06' E 013°26'0 0.0
2015-Jul-31 17:32N 38°06' E 013°26'0 0.0
2015-Jul-31 16:32N 38°06' E 013°26'0 0.0
2015-Jul-31 15:29N 38°06' E 013°26'0 0.0
2015-Jul-31 14:29N 38°06' E 013°26'0 0.0
2015-Jul-31 13:32N 38°06' E 013°26'0 0.0
2015-Jul-31 12:32N 38°06' E 013°26'0 0.0
2015-Jul-31 11:32N 38°06' E 013°26'0 0.0
2015-Jul-31 10:32N 38°06' E 013°26'0 0.0
2015-Jul-31 09:20N 38°06' E 013°26'0 0.0
2015-Jul-31 08:32N 38°06' E 013°26'0 0.0
2015-Jul-31 07:23N 38°06' E 013°26'0 0.0
2015-Jul-31 06:33N 38°06' E 013°26'1 1.3
2015-Jul-31 05:33N 38°07' E 013°28'1 1.1
2015-Jul-31 04:33N 38°07' E 013°29'8 7.4
2015-Jul-31 03:25N 38°10' E 013°39'53 9.0
2015-Jul-30 21:33N 38°16' E 014°45'1210.9
2015-Jul-30 20:28N 38°17' E 015°00'1010.9
2015-Jul-30 19:32N 38°18' E 015°13'1010.5
2015-Jul-30 18:34N 38°19' E 015°26'10 9.6
2015-Jul-30 17:33N 38°19' E 015°39'9 8.6
2015-Jul-30 16:34N 38°10' E 015°37'1211.5
2015-Jul-30 15:33N 37°59' E 015°33'1312.3
2015-Jul-30 14:31N 37°47' E 015°29'2412.3
2015-Jul-30 12:33N 37°24' E 015°22'5 0.1
2015-Jul-29 00:28N 37°19' E 015°20'1414.2
2015-Jul-28 23:30N 37°32' E 015°23'1414.4
2015-Jul-28 22:33N 37°45' E 015°28'1514.8
2015-Jul-28 21:34N 37°60' E 015°32'1514.5
2015-Jul-28 20:33N 38°14' E 015°36'1312.8
2015-Jul-28 19:33N 38°27' E 015°36'1514.7
2015-Jul-28 18:33N 38°40' E 015°29'1614.7
2015-Jul-28 17:29N 38°55' E 015°20'1314.5
2015-Jul-28 16:34N 39°06' E 015°12'8814.6
2015-Jul-28 10:33N 40°22' E 014°15'1414.2
2015-Jul-28 09:33N 40°36' E 014°10'1414.2
2015-Jul-28 08:34N 40°49' E 014°18'2 1.6
2015-Jul-28 07:29N 40°50' E 014°18'0 0.0
2015-Jul-28 06:32N 40°50' E 014°18'0 0.0
2015-Jul-28 05:26N 40°50' E 014°18'0 0.0
2015-Jul-28 04:29N 40°50' E 014°18'0 0.0
2015-Jul-28 03:32N 40°50' E 014°18'0 0.0
2015-Jul-28 02:32N 40°50' E 014°18'0 0.0
2015-Jul-28 01:17N 40°50' E 014°18'0 0.0
2015-Jul-28 00:20N 40°50' E 014°18'0 0.0
2015-Jul-27 23:32N 40°50' E 014°18'0 0.0
2015-Jul-27 22:32N 40°50' E 014°18'0 0.0
2015-Jul-27 21:32N 40°50' E 014°18'0 0.0
2015-Jul-27 20:17N 40°50' E 014°18'0 0.0
2015-Jul-27 17:16N 40°50' E 014°18'0 0.0
2015-Jul-27 16:13N 40°50' E 014°18'0 0.0
2015-Jul-27 15:31N 40°50' E 014°18'0 0.0
2015-Jul-27 14:25N 40°50' E 014°18'0 0.1
2015-Jul-27 12:28N 40°50' E 014°17'3 3.7
2015-Jul-27 11:33N 40°47' E 014°17'1413.8
2015-Jul-27 10:33N 40°34' E 014°09'11614.0
2015-Jul-27 02:17N 38°53' E 015°21'1014.0
2015-Jul-27 01:33N 38°44' E 015°27'1414.3
2015-Jul-27 00:33N 38°31' E 015°35'1414.5
2015-Jul-26 23:33N 38°18' E 015°43'1313.5
2015-Jul-26 22:33N 38°06' E 015°35'1414.3
2015-Jul-26 21:33N 37°52' E 015°31'  
2015-Jul-24 08:31N 37°39' E 015°26'1414.5
2015-Jul-24 07:33N 37°53' E 015°30'1514.6
2015-Jul-24 06:33N 38°07' E 015°34'1212.0
2015-Jul-24 05:33N 38°19' E 015°38'1413.7
2015-Jul-24 04:33N 38°19' E 015°21'1313.0
2015-Jul-24 03:32N 38°17' E 015°04'1312.8
2015-Jul-24 02:33N 38°16' E 014°48'5513.1
2015-Jul-23 22:23N 38°10' E 013°39'1012.6
2015-Jul-23 21:33N 38°07' E 013°27'1 0.9
2015-Jul-23 20:28N 38°06' E 013°26'0 0.0
2015-Jul-23 19:28N 38°06' E 013°26'0 0.0
2015-Jul-23 18:28N 38°06' E 013°26'0 0.0
2015-Jul-23 17:31N 38°06' E 013°26'0 0.0
2015-Jul-23 16:28N 38°06' E 013°26'0 0.0
2015-Jul-23 15:28N 38°06' E 013°26'0 0.0
2015-Jul-23 14:31N 38°06' E 013°26'0 0.0
2015-Jul-23 13:34N 38°06' E 013°26'0 0.0
2015-Jul-23 12:18N 38°06' E 013°26'0 0.0
2015-Jul-23 11:33N 38°06' E 013°26'0 0.0
2015-Jul-23 10:33N 38°06' E 013°26'0 0.0
2015-Jul-23 09:33N 38°06' E 013°26'0 0.0
2015-Jul-23 08:33N 38°06' E 013°26'0 0.0
2015-Jul-23 07:32N 38°06' E 013°26'1 0.8
2015-Jul-23 06:33N 38°06' E 013°27'1 1.3
2015-Jul-23 05:32N 38°07' E 013°29'0 0.0
2015-Jul-23 04:29N 38°07' E 013°29'0 0.0
2015-Jul-23 03:32N 38°07' E 013°29'0 0.0
2015-Jul-23 02:32N 38°07' E 013°29'0 0.0
2015-Jul-23 01:32N 38°07' E 013°29'0 0.0
2015-Jul-23 00:32N 38°07' E 013°29'0 0.0
2015-Jul-22 23:28N 38°07' E 013°29'5212.6
2015-Jul-22 19:17N 38°15' E 014°35'1114.5
2015-Jul-22 18:32N 38°16' E 014°48'1515.3
2015-Jul-22 17:33N 38°18' E 015°07'1514.8
2015-Jul-22 16:33N 38°19' E 015°26'1212.5
2015-Jul-22 15:34N 38°17' E 015°42'1313.1
2015-Jul-22 14:33N 38°05' E 015°35'1413.6
2015-Jul-22 13:33N 37°51' E 015°31'1413.6
2015-Jul-22 12:31N 37°38' E 015°26'  

Dump ship's entire track history